sensor_id;sensor_type;location;lat;lon;timestamp;P1;durP1;ratioP1;P2;durP2;ratioP2
64917;SDS011;52176;44.858;38.372;2023-04-06T07:02:02;6.30;;;1.70;;
64917;SDS011;52176;44.858;38.372;2023-04-06T07:09:21;4.50;;;1.70;;
64917;SDS011;52176;44.858;38.372;2023-04-06T07:14:15;4.60;;;1.65;;
64917;SDS011;52176;44.858;38.372;2023-04-06T07:16:41;3.00;;;1.35;;
64917;SDS011;52176;44.858;38.372;2023-04-06T07:19:10;3.55;;;1.40;;
64917;SDS011;52176;44.858;38.372;2023-04-06T07:21:36;2.70;;;1.20;;
64917;SDS011;52176;44.858;38.372;2023-04-06T07:24:02;4.93;;;1.60;;
64917;SDS011;52176;44.858;38.372;2023-04-06T07:26:29;4.30;;;1.30;;
64917;SDS011;52176;44.858;38.372;2023-04-06T07:28:56;2.60;;;1.17;;
64917;SDS011;52176;44.858;38.372;2023-04-06T07:31:23;5.10;;;1.75;;
64917;SDS011;52176;44.858;38.372;2023-04-06T07:33:49;3.95;;;2.28;;
64917;SDS011;52176;44.858;38.372;2023-04-06T07:36:17;4.40;;;2.30;;
64917;SDS011;52176;44.858;38.372;2023-04-06T07:38:43;4.60;;;2.35;;
64917;SDS011;52176;44.858;38.372;2023-04-06T07:41:12;12.30;;;3.55;;
64917;SDS011;52176;44.858;38.372;2023-04-06T07:43:39;11.45;;;3.95;;
64917;SDS011;52176;44.858;38.372;2023-04-06T07:46:06;6.63;;;2.83;;
64917;SDS011;52176;44.858;38.372;2023-04-06T07:48:32;8.02;;;1.75;;
64917;SDS011;52176;44.858;38.372;2023-04-06T07:51:04;5.20;;;2.00;;
64917;SDS011;52176;44.858;38.372;2023-04-06T07:53:35;5.97;;;1.33;;
64917;SDS011;52176;44.858;38.372;2023-04-06T07:59:55;3.93;;;1.17;;
64917;SDS011;52176;44.858;38.372;2023-04-06T08:02:21;5.67;;;1.50;;
64917;SDS011;52176;44.858;38.372;2023-04-06T08:04:48;5.22;;;1.63;;
64917;SDS011;52176;44.858;38.372;2023-04-06T08:07:14;2.95;;;1.02;;
64917;SDS011;52176;44.858;38.372;2023-04-06T08:09:40;6.65;;;2.90;;
64917;SDS011;52176;44.858;38.372;2023-04-06T08:12:06;4.45;;;2.10;;
64917;SDS011;52176;44.858;38.372;2023-04-06T08:14:50;3.95;;;1.77;;
64917;SDS011;52176;44.858;38.372;2023-04-06T08:17:16;6.60;;;1.70;;
64917;SDS011;52176;44.858;38.372;2023-04-06T08:20:01;5.37;;;2.80;;
64917;SDS011;52176;44.858;38.372;2023-04-06T08:22:28;6.88;;;3.00;;
64917;SDS011;52176;44.858;38.372;2023-04-06T08:25:13;8.02;;;2.53;;
64917;SDS011;52176;44.858;38.372;2023-04-06T08:27:39;3.60;;;2.40;;
64917;SDS011;52176;44.858;38.372;2023-04-06T08:30:05;6.75;;;2.78;;
64917;SDS011;52176;44.858;38.372;2023-04-06T08:32:50;3.97;;;1.40;;
64917;SDS011;52176;44.858;38.372;2023-04-06T08:38:38;3.75;;;1.75;;
64917;SDS011;52176;44.858;38.372;2023-04-06T08:46:52;3.28;;;1.23;;
64917;SDS011;52176;44.858;38.372;2023-04-06T08:49:19;3.58;;;1.90;;
64917;SDS011;52176;44.858;38.372;2023-04-06T08:51:46;2.78;;;1.75;;
64917;SDS011;52176;44.858;38.372;2023-04-06T08:56:58;3.67;;;2.47;;
64917;SDS011;52176;44.858;38.372;2023-04-06T08:59:24;2.55;;;1.65;;
64917;SDS011;52176;44.858;38.372;2023-04-06T09:01:50;4.97;;;2.80;;
64917;SDS011;52176;44.858;38.372;2023-04-06T09:04:18;4.32;;;2.42;;
64917;SDS011;52176;44.858;38.372;2023-04-06T09:06:44;4.85;;;1.98;;
64917;SDS011;52176;44.858;38.372;2023-04-06T09:09:10;2.23;;;1.40;;
64917;SDS011;52176;44.858;38.372;2023-04-06T09:11:49;2.37;;;1.73;;
64917;SDS011;52176;44.858;38.372;2023-04-06T09:14:35;3.53;;;1.30;;
64917;SDS011;52176;44.858;38.372;2023-04-06T09:17:06;5.93;;;1.67;;
64917;SDS011;52176;44.858;38.372;2023-04-06T09:19:32;3.90;;;1.90;;
64917;SDS011;52176;44.858;38.372;2023-04-06T09:22:16;2.60;;;1.90;;
64917;SDS011;52176;44.858;38.372;2023-04-06T09:24:47;5.13;;;1.90;;
64917;SDS011;52176;44.858;38.372;2023-04-06T09:27:58;5.57;;;1.65;;
64917;SDS011;52176;44.858;38.372;2023-04-06T09:30:25;4.40;;;1.60;;
64917;SDS011;52176;44.858;38.372;2023-04-06T09:33:11;6.43;;;2.40;;
64917;SDS011;52176;44.858;38.372;2023-04-06T09:35:37;2.20;;;1.63;;
64917;SDS011;52176;44.858;38.372;2023-04-06T09:38:10;3.72;;;1.77;;
64917;SDS011;52176;44.858;38.372;2023-04-06T09:40:46;8.85;;;1.92;;
64917;SDS011;52176;44.858;38.372;2023-04-06T09:43:22;4.10;;;1.13;;
64917;SDS011;52176;44.858;38.372;2023-04-06T09:46:07;2.35;;;1.25;;
64917;SDS011;52176;44.858;38.372;2023-04-06T09:48:33;4.63;;;1.30;;
64917;SDS011;52176;44.858;38.372;2023-04-06T09:51:40;3.75;;;1.50;;
64917;SDS011;52176;44.858;38.372;2023-04-06T09:54:46;2.70;;;1.25;;
64917;SDS011;52176;44.858;38.372;2023-04-06T10:03:13;3.72;;;1.00;;
64917;SDS011;52176;44.858;38.372;2023-04-06T10:06:05;4.20;;;1.25;;
64917;SDS011;52176;44.858;38.372;2023-04-06T10:08:52;3.88;;;0.90;;
64917;SDS011;52176;44.858;38.372;2023-04-06T10:11:22;2.80;;;1.02;;
64917;SDS011;52176;44.858;38.372;2023-04-06T10:14:06;2.28;;;1.00;;
64917;SDS011;52176;44.858;38.372;2023-04-06T10:16:33;2.92;;;1.00;;
64917;SDS011;52176;44.858;38.372;2023-04-06T10:25:55;2.25;;;0.90;;
64917;SDS011;52176;44.858;38.372;2023-04-06T10:28:23;1.85;;;0.80;;
64917;SDS011;52176;44.858;38.372;2023-04-06T10:30:56;2.65;;;1.10;;
64917;SDS011;52176;44.858;38.372;2023-04-06T10:33:26;5.78;;;1.20;;
64917;SDS011;52176;44.858;38.372;2023-04-06T10:35:52;1.73;;;0.90;;
64917;SDS011;52176;44.858;38.372;2023-04-06T10:38:20;4.93;;;1.20;;
64917;SDS011;52176;44.858;38.372;2023-04-06T10:40:48;3.20;;;0.95;;
64917;SDS011;52176;44.858;38.372;2023-04-06T10:43:33;5.97;;;1.20;;
64917;SDS011;52176;44.858;38.372;2023-04-06T10:46:24;1.83;;;1.00;;
64917;SDS011;52176;44.858;38.372;2023-04-06T10:51:54;3.88;;;0.93;;
64917;SDS011;52176;44.858;38.372;2023-04-06T10:54:21;1.85;;;1.10;;
64917;SDS011;52176;44.858;38.372;2023-04-06T10:56:49;2.08;;;0.90;;
64917;SDS011;52176;44.858;38.372;2023-04-06T10:59:19;3.38;;;1.40;;
64917;SDS011;52176;44.858;38.372;2023-04-06T11:01:46;6.15;;;1.20;;
64917;SDS011;52176;44.858;38.372;2023-04-06T11:04:15;2.88;;;1.27;;
64917;SDS011;52176;44.858;38.372;2023-04-06T11:06:49;2.60;;;1.17;;
64917;SDS011;52176;44.858;38.372;2023-04-06T11:11:53;1.52;;;1.05;;
64917;SDS011;52176;44.858;38.372;2023-04-06T11:14:20;5.22;;;1.10;;
64917;SDS011;52176;44.858;38.372;2023-04-06T11:16:47;8.15;;;1.30;;
64917;SDS011;52176;44.858;38.372;2023-04-06T11:19:16;4.38;;;1.30;;
64917;SDS011;52176;44.858;38.372;2023-04-06T11:21:43;2.63;;;1.02;;
64917;SDS011;52176;44.858;38.372;2023-04-06T11:26:41;2.97;;;1.20;;
64917;SDS011;52176;44.858;38.372;2023-04-06T11:29:15;4.15;;;1.35;;
64917;SDS011;52176;44.858;38.372;2023-04-06T11:31:44;5.78;;;1.30;;
64917;SDS011;52176;44.858;38.372;2023-04-06T11:34:12;10.25;;;1.40;;
64917;SDS011;52176;44.858;38.372;2023-04-06T11:36:42;2.70;;;1.20;;
64917;SDS011;52176;44.858;38.372;2023-04-06T11:39:09;2.85;;;1.30;;
64917;SDS011;52176;44.858;38.372;2023-04-06T11:41:35;2.97;;;1.23;;
64917;SDS011;52176;44.858;38.372;2023-04-06T11:44:02;4.70;;;1.40;;
64917;SDS011;52176;44.858;38.372;2023-04-06T11:46:28;2.40;;;1.48;;
64917;SDS011;52176;44.858;38.372;2023-04-06T11:48:57;3.67;;;1.27;;
64917;SDS011;52176;44.858;38.372;2023-04-06T11:51:25;2.63;;;1.15;;
64917;SDS011;52176;44.858;38.372;2023-04-06T11:53:52;3.00;;;1.38;;
64917;SDS011;52176;44.858;38.372;2023-04-06T11:56:22;1.60;;;1.30;;
64917;SDS011;52176;44.858;38.372;2023-04-06T11:58:49;2.67;;;1.37;;
64917;SDS011;52176;44.858;38.372;2023-04-06T12:01:15;5.18;;;1.27;;
64917;SDS011;52176;44.858;38.372;2023-04-06T12:03:41;7.40;;;1.40;;
64917;SDS011;52176;44.858;38.372;2023-04-06T12:06:08;2.70;;;1.23;;
64917;SDS011;52176;44.858;38.372;2023-04-06T12:08:34;1.80;;;1.10;;
64917;SDS011;52176;44.858;38.372;2023-04-06T12:11:00;5.20;;;1.30;;
64917;SDS011;52176;44.858;38.372;2023-04-06T12:13:27;3.70;;;1.45;;
64917;SDS011;52176;44.858;38.372;2023-04-06T12:15:53;3.22;;;1.58;;
64917;SDS011;52176;44.858;38.372;2023-04-06T12:18:20;5.43;;;1.50;;
64917;SDS011;52176;44.858;38.372;2023-04-06T12:20:47;6.47;;;1.50;;
64917;SDS011;52176;44.858;38.372;2023-04-06T12:23:13;2.78;;;1.30;;
64917;SDS011;52176;44.858;38.372;2023-04-06T12:25:39;5.10;;;1.38;;
64917;SDS011;52176;44.858;38.372;2023-04-06T12:28:06;2.37;;;1.27;;
64917;SDS011;52176;44.858;38.372;2023-04-06T12:30:34;3.00;;;1.60;;
64917;SDS011;52176;44.858;38.372;2023-04-06T12:33:01;3.47;;;1.42;;
64917;SDS011;52176;44.858;38.372;2023-04-06T12:35:27;3.40;;;1.30;;
64917;SDS011;52176;44.858;38.372;2023-04-06T12:37:53;2.38;;;1.30;;
64917;SDS011;52176;44.858;38.372;2023-04-06T12:40:19;4.70;;;1.60;;
64917;SDS011;52176;44.858;38.372;2023-04-06T12:42:45;6.03;;;1.60;;
64917;SDS011;52176;44.858;38.372;2023-04-06T12:45:12;1.77;;;1.30;;
64917;SDS011;52176;44.858;38.372;2023-04-06T12:47:38;3.35;;;1.90;;
64917;SDS011;52176;44.858;38.372;2023-04-06T12:50:04;2.50;;;1.33;;
64917;SDS011;52176;44.858;38.372;2023-04-06T12:52:31;6.43;;;1.50;;
64917;SDS011;52176;44.858;38.372;2023-04-06T12:55:01;4.97;;;1.45;;
64917;SDS011;52176;44.858;38.372;2023-04-06T12:57:27;1.77;;;1.40;;
64917;SDS011;52176;44.858;38.372;2023-04-06T12:59:53;5.07;;;1.50;;
64917;SDS011;52176;44.858;38.372;2023-04-06T13:02:20;7.18;;;1.80;;
64917;SDS011;52176;44.858;38.372;2023-04-06T13:04:46;3.50;;;1.30;;
64917;SDS011;52176;44.858;38.372;2023-04-06T13:07:13;4.85;;;1.52;;
64917;SDS011;52176;44.858;38.372;2023-04-06T13:09:40;2.45;;;1.60;;
64917;SDS011;52176;44.858;38.372;2023-04-06T13:12:06;4.57;;;1.50;;
64917;SDS011;52176;44.858;38.372;2023-04-06T13:14:32;4.53;;;1.55;;
64917;SDS011;52176;44.858;38.372;2023-04-06T13:16:58;1.90;;;1.48;;
64917;SDS011;52176;44.858;38.372;2023-04-06T13:19:25;7.30;;;1.60;;
64917;SDS011;52176;44.858;38.372;2023-04-06T13:21:51;4.15;;;1.50;;
64917;SDS011;52176;44.858;38.372;2023-04-06T13:24:18;3.17;;;1.50;;
64917;SDS011;52176;44.858;38.372;2023-04-06T13:26:44;3.50;;;1.50;;
64917;SDS011;52176;44.858;38.372;2023-04-06T13:29:11;6.78;;;1.73;;
64917;SDS011;52176;44.858;38.372;2023-04-06T13:35:30;6.43;;;1.80;;
64917;SDS011;52176;44.858;38.372;2023-04-06T13:37:57;2.85;;;1.55;;
64917;SDS011;52176;44.858;38.372;2023-04-06T13:40:23;8.40;;;1.73;;
64917;SDS011;52176;44.858;38.372;2023-04-06T13:42:49;2.58;;;1.33;;
64917;SDS011;52176;44.858;38.372;2023-04-06T13:45:15;4.30;;;1.60;;
64917;SDS011;52176;44.858;38.372;2023-04-06T13:47:41;3.60;;;1.60;;
64917;SDS011;52176;44.858;38.372;2023-04-06T13:50:08;4.30;;;1.65;;
64917;SDS011;52176;44.858;38.372;2023-04-06T14:21:55;4.90;;;1.80;;
64917;SDS011;52176;44.858;38.372;2023-04-06T14:29:13;3.60;;;1.40;;
64917;SDS011;52176;44.858;38.372;2023-04-06T14:58:34;5.60;;;1.40;;
